sensor_id;sensor_type;location;lat;lon;timestamp;P1;durP1;ratioP1;P2;durP2;ratioP2
64291;SDS011;50628;51.008;13.658;2023-03-04T00:01:25;37.83;;;19.47;;
64291;SDS011;50628;51.008;13.658;2023-03-04T00:06:28;40.53;;;21.10;;
64291;SDS011;50628;51.008;13.658;2023-03-04T00:11:30;37.27;;;19.87;;
64291;SDS011;50628;51.008;13.658;2023-03-04T00:16:33;33.47;;;17.80;;
64291;SDS011;50628;51.008;13.658;2023-03-04T00:21:36;35.23;;;20.00;;
64291;SDS011;50628;51.008;13.658;2023-03-04T00:26:38;37.33;;;20.83;;
64291;SDS011;50628;51.008;13.658;2023-03-04T00:31:41;38.37;;;20.40;;
64291;SDS011;50628;51.008;13.658;2023-03-04T00:36:44;37.63;;;18.87;;
64291;SDS011;50628;51.008;13.658;2023-03-04T00:41:46;43.03;;;21.47;;
64291;SDS011;50628;51.008;13.658;2023-03-04T00:46:48;41.13;;;21.60;;
64291;SDS011;50628;51.008;13.658;2023-03-04T00:51:51;34.17;;;19.60;;
64291;SDS011;50628;51.008;13.658;2023-03-04T00:56:53;39.43;;;21.00;;
64291;SDS011;50628;51.008;13.658;2023-03-04T01:01:55;33.67;;;19.17;;
64291;SDS011;50628;51.008;13.658;2023-03-04T01:06:58;32.50;;;18.27;;
64291;SDS011;50628;51.008;13.658;2023-03-04T01:12:00;34.83;;;17.57;;
64291;SDS011;50628;51.008;13.658;2023-03-04T01:17:02;29.23;;;18.23;;
64291;SDS011;50628;51.008;13.658;2023-03-04T01:22:05;31.23;;;17.47;;
64291;SDS011;50628;51.008;13.658;2023-03-04T01:27:07;31.40;;;18.03;;
64291;SDS011;50628;51.008;13.658;2023-03-04T01:32:09;27.43;;;15.70;;
64291;SDS011;50628;51.008;13.658;2023-03-04T01:37:12;26.83;;;16.90;;
64291;SDS011;50628;51.008;13.658;2023-03-04T01:42:16;28.50;;;15.23;;
64291;SDS011;50628;51.008;13.658;2023-03-04T01:47:20;29.77;;;17.53;;
64291;SDS011;50628;51.008;13.658;2023-03-04T01:52:26;24.57;;;15.70;;
64291;SDS011;50628;51.008;13.658;2023-03-04T01:57:32;26.37;;;16.23;;
64291;SDS011;50628;51.008;13.658;2023-03-04T02:02:35;26.60;;;15.10;;
64291;SDS011;50628;51.008;13.658;2023-03-04T02:07:39;24.53;;;15.67;;
64291;SDS011;50628;51.008;13.658;2023-03-04T02:12:41;25.37;;;16.03;;
64291;SDS011;50628;51.008;13.658;2023-03-04T02:17:43;25.57;;;15.60;;
64291;SDS011;50628;51.008;13.658;2023-03-04T02:22:48;27.20;;;16.50;;
64291;SDS011;50628;51.008;13.658;2023-03-04T02:27:58;20.13;;;14.70;;
64291;SDS011;50628;51.008;13.658;2023-03-04T02:33:00;29.90;;;17.10;;
64291;SDS011;50628;51.008;13.658;2023-03-04T02:38:01;23.27;;;15.07;;
64291;SDS011;50628;51.008;13.658;2023-03-04T02:43:07;30.00;;;17.70;;
64291;SDS011;50628;51.008;13.658;2023-03-04T02:48:10;24.13;;;15.50;;
64291;SDS011;50628;51.008;13.658;2023-03-04T02:53:13;28.43;;;17.47;;
64291;SDS011;50628;51.008;13.658;2023-03-04T02:58:18;24.93;;;14.80;;
64291;SDS011;50628;51.008;13.658;2023-03-04T03:03:21;24.67;;;15.73;;
64291;SDS011;50628;51.008;13.658;2023-03-04T03:08:23;23.27;;;14.20;;
64291;SDS011;50628;51.008;13.658;2023-03-04T03:13:26;20.27;;;12.97;;
64291;SDS011;50628;51.008;13.658;2023-03-04T03:18:29;25.57;;;16.13;;
64291;SDS011;50628;51.008;13.658;2023-03-04T03:23:31;24.60;;;15.80;;
64291;SDS011;50628;51.008;13.658;2023-03-04T03:28:34;28.07;;;16.73;;
64291;SDS011;50628;51.008;13.658;2023-03-04T03:33:36;29.73;;;17.87;;
64291;SDS011;50628;51.008;13.658;2023-03-04T03:38:39;28.40;;;17.43;;
64291;SDS011;50628;51.008;13.658;2023-03-04T03:43:42;31.10;;;16.47;;
64291;SDS011;50628;51.008;13.658;2023-03-04T03:48:44;25.87;;;15.33;;
64291;SDS011;50628;51.008;13.658;2023-03-04T03:53:46;25.37;;;15.27;;
64291;SDS011;50628;51.008;13.658;2023-03-04T03:58:49;23.27;;;13.90;;
64291;SDS011;50628;51.008;13.658;2023-03-04T04:03:51;19.87;;;13.40;;
64291;SDS011;50628;51.008;13.658;2023-03-04T04:08:53;20.30;;;12.67;;
64291;SDS011;50628;51.008;13.658;2023-03-04T04:13:56;24.33;;;14.87;;
64291;SDS011;50628;51.008;13.658;2023-03-04T04:18:58;21.57;;;12.57;;
64291;SDS011;50628;51.008;13.658;2023-03-04T04:24:00;18.53;;;12.20;;
64291;SDS011;50628;51.008;13.658;2023-03-04T04:29:03;27.13;;;14.70;;
64291;SDS011;50628;51.008;13.658;2023-03-04T04:34:05;27.27;;;14.50;;
64291;SDS011;50628;51.008;13.658;2023-03-04T04:39:07;22.53;;;13.70;;
64291;SDS011;50628;51.008;13.658;2023-03-04T04:44:10;23.20;;;14.23;;
64291;SDS011;50628;51.008;13.658;2023-03-04T04:49:13;24.20;;;13.67;;
64291;SDS011;50628;51.008;13.658;2023-03-04T04:54:15;22.90;;;14.23;;
64291;SDS011;50628;51.008;13.658;2023-03-04T04:59:18;30.60;;;15.07;;
64291;SDS011;50628;51.008;13.658;2023-03-04T05:04:20;29.23;;;15.93;;
64291;SDS011;50628;51.008;13.658;2023-03-04T05:09:22;27.40;;;15.27;;
64291;SDS011;50628;51.008;13.658;2023-03-04T05:14:25;23.17;;;13.07;;
64291;SDS011;50628;51.008;13.658;2023-03-04T05:19:27;22.80;;;13.60;;
64291;SDS011;50628;51.008;13.658;2023-03-04T05:24:29;22.67;;;13.23;;
64291;SDS011;50628;51.008;13.658;2023-03-04T05:29:33;23.10;;;12.47;;
64291;SDS011;50628;51.008;13.658;2023-03-04T05:34:34;26.33;;;12.87;;
64291;SDS011;50628;51.008;13.658;2023-03-04T05:39:36;29.67;;;14.70;;
64291;SDS011;50628;51.008;13.658;2023-03-04T05:44:39;25.63;;;13.83;;
64291;SDS011;50628;51.008;13.658;2023-03-04T05:49:41;26.70;;;12.20;;
64291;SDS011;50628;51.008;13.658;2023-03-04T05:54:43;27.20;;;13.43;;
64291;SDS011;50628;51.008;13.658;2023-03-04T05:59:46;22.37;;;12.37;;
64291;SDS011;50628;51.008;13.658;2023-03-04T06:04:48;28.97;;;15.47;;
64291;SDS011;50628;51.008;13.658;2023-03-04T06:09:50;24.93;;;13.17;;
64291;SDS011;50628;51.008;13.658;2023-03-04T06:14:53;21.90;;;12.37;;
64291;SDS011;50628;51.008;13.658;2023-03-04T06:19:55;23.80;;;12.87;;
64291;SDS011;50628;51.008;13.658;2023-03-04T06:24:57;25.83;;;13.17;;
64291;SDS011;50628;51.008;13.658;2023-03-04T06:30:00;25.80;;;11.20;;
64291;SDS011;50628;51.008;13.658;2023-03-04T06:35:03;22.50;;;11.00;;
64291;SDS011;50628;51.008;13.658;2023-03-04T06:40:06;28.07;;;14.13;;
64291;SDS011;50628;51.008;13.658;2023-03-04T06:45:11;28.83;;;15.13;;
64291;SDS011;50628;51.008;13.658;2023-03-04T06:50:13;22.43;;;10.80;;
64291;SDS011;50628;51.008;13.658;2023-03-04T06:55:15;23.57;;;12.27;;
64291;SDS011;50628;51.008;13.658;2023-03-04T07:00:19;23.33;;;10.73;;
64291;SDS011;50628;51.008;13.658;2023-03-04T07:05:23;26.60;;;14.17;;
64291;SDS011;50628;51.008;13.658;2023-03-04T07:10:24;26.60;;;13.27;;
64291;SDS011;50628;51.008;13.658;2023-03-04T07:15:28;35.53;;;13.63;;
64291;SDS011;50628;51.008;13.658;2023-03-04T07:20:30;25.00;;;11.60;;
64291;SDS011;50628;51.008;13.658;2023-03-04T07:25:32;26.47;;;13.03;;
64291;SDS011;50628;51.008;13.658;2023-03-04T07:30:35;27.87;;;13.47;;
64291;SDS011;50628;51.008;13.658;2023-03-04T07:35:37;25.37;;;11.53;;
64291;SDS011;50628;51.008;13.658;2023-03-04T07:40:39;27.30;;;11.80;;
64291;SDS011;50628;51.008;13.658;2023-03-04T07:45:42;26.03;;;10.73;;
64291;SDS011;50628;51.008;13.658;2023-03-04T07:50:44;25.50;;;11.63;;
64291;SDS011;50628;51.008;13.658;2023-03-04T07:55:46;22.07;;;11.13;;
64291;SDS011;50628;51.008;13.658;2023-03-04T08:00:49;23.10;;;10.83;;
64291;SDS011;50628;51.008;13.658;2023-03-04T08:05:51;22.67;;;11.67;;
64291;SDS011;50628;51.008;13.658;2023-03-04T08:10:53;23.97;;;10.97;;
64291;SDS011;50628;51.008;13.658;2023-03-04T08:15:57;24.73;;;12.13;;
64291;SDS011;50628;51.008;13.658;2023-03-04T08:20:58;24.63;;;11.23;;
64291;SDS011;50628;51.008;13.658;2023-03-04T08:26:04;23.30;;;11.33;;
64291;SDS011;50628;51.008;13.658;2023-03-04T08:31:08;19.40;;;11.77;;
64291;SDS011;50628;51.008;13.658;2023-03-04T08:36:10;28.07;;;13.47;;
64291;SDS011;50628;51.008;13.658;2023-03-04T08:41:12;25.83;;;11.63;;
64291;SDS011;50628;51.008;13.658;2023-03-04T08:46:16;24.10;;;12.07;;
64291;SDS011;50628;51.008;13.658;2023-03-04T08:51:18;18.07;;;8.70;;
64291;SDS011;50628;51.008;13.658;2023-03-04T08:56:20;19.13;;;10.43;;
64291;SDS011;50628;51.008;13.658;2023-03-04T09:01:23;19.73;;;10.77;;
64291;SDS011;50628;51.008;13.658;2023-03-04T09:06:25;21.43;;;11.17;;
64291;SDS011;50628;51.008;13.658;2023-03-04T09:11:27;18.30;;;10.23;;
64291;SDS011;50628;51.008;13.658;2023-03-04T09:16:30;16.03;;;9.27;;
64291;SDS011;50628;51.008;13.658;2023-03-04T09:21:32;17.27;;;9.73;;
64291;SDS011;50628;51.008;13.658;2023-03-04T09:26:34;20.63;;;10.60;;
64291;SDS011;50628;51.008;13.658;2023-03-04T09:31:37;15.53;;;9.83;;
64291;SDS011;50628;51.008;13.658;2023-03-04T09:36:39;14.00;;;7.87;;
64291;SDS011;50628;51.008;13.658;2023-03-04T09:41:41;21.37;;;10.23;;
64291;SDS011;50628;51.008;13.658;2023-03-04T09:46:48;13.50;;;8.43;;
64291;SDS011;50628;51.008;13.658;2023-03-04T09:51:54;17.23;;;9.23;;
64291;SDS011;50628;51.008;13.658;2023-03-04T09:56:59;14.47;;;7.77;;
64291;SDS011;50628;51.008;13.658;2023-03-04T10:02:19;12.57;;;7.43;;
64291;SDS011;50628;51.008;13.658;2023-03-04T10:07:32;15.03;;;7.80;;
64291;SDS011;50628;51.008;13.658;2023-03-04T10:12:38;15.00;;;7.97;;
64291;SDS011;50628;51.008;13.658;2023-03-04T10:17:46;16.13;;;7.80;;
64291;SDS011;50628;51.008;13.658;2023-03-04T10:22:51;14.40;;;8.40;;
64291;SDS011;50628;51.008;13.658;2023-03-04T10:27:57;17.70;;;8.53;;
64291;SDS011;50628;51.008;13.658;2023-03-04T10:33:04;19.73;;;7.20;;
64291;SDS011;50628;51.008;13.658;2023-03-04T10:38:10;14.00;;;7.03;;
64291;SDS011;50628;51.008;13.658;2023-03-04T10:43:14;14.07;;;7.77;;
64291;SDS011;50628;51.008;13.658;2023-03-04T10:48:23;15.37;;;7.27;;
64291;SDS011;50628;51.008;13.658;2023-03-04T10:53:30;17.47;;;7.00;;
64291;SDS011;50628;51.008;13.658;2023-03-04T10:58:37;14.53;;;6.17;;
64291;SDS011;50628;51.008;13.658;2023-03-04T11:03:40;13.40;;;5.77;;
64291;SDS011;50628;51.008;13.658;2023-03-04T11:08:52;13.03;;;6.93;;
64291;SDS011;50628;51.008;13.658;2023-03-04T11:13:57;10.13;;;5.70;;
64291;SDS011;50628;51.008;13.658;2023-03-04T11:19:03;9.97;;;5.90;;
64291;SDS011;50628;51.008;13.658;2023-03-04T11:24:12;12.30;;;4.87;;
64291;SDS011;50628;51.008;13.658;2023-03-04T11:29:17;12.10;;;5.67;;
64291;SDS011;50628;51.008;13.658;2023-03-04T11:34:28;12.43;;;6.03;;
64291;SDS011;50628;51.008;13.658;2023-03-04T11:39:35;13.10;;;6.23;;
64291;SDS011;50628;51.008;13.658;2023-03-04T11:44:39;17.53;;;7.00;;
64291;SDS011;50628;51.008;13.658;2023-03-04T11:49:53;13.50;;;5.13;;
64291;SDS011;50628;51.008;13.658;2023-03-04T12:00:25;15.03;;;5.47;;
64291;SDS011;50628;51.008;13.658;2023-03-04T12:05:40;17.43;;;6.37;;
64291;SDS011;50628;51.008;13.658;2023-03-04T12:10:54;11.47;;;5.83;;
64291;SDS011;50628;51.008;13.658;2023-03-04T12:16:08;14.00;;;5.40;;
64291;SDS011;50628;51.008;13.658;2023-03-04T12:21:23;14.83;;;5.23;;
64291;SDS011;50628;51.008;13.658;2023-03-04T12:26:38;9.17;;;5.17;;
64291;SDS011;50628;51.008;13.658;2023-03-04T12:31:45;9.57;;;5.03;;
64291;SDS011;50628;51.008;13.658;2023-03-04T12:36:57;12.33;;;5.40;;
64291;SDS011;50628;51.008;13.658;2023-03-04T12:42:17;16.63;;;5.33;;
64291;SDS011;50628;51.008;13.658;2023-03-04T12:47:29;15.30;;;5.70;;
64291;SDS011;50628;51.008;13.658;2023-03-04T12:52:43;10.67;;;4.87;;
64291;SDS011;50628;51.008;13.658;2023-03-04T12:57:55;11.53;;;5.27;;
64291;SDS011;50628;51.008;13.658;2023-03-04T13:03:02;9.07;;;4.67;;
64291;SDS011;50628;51.008;13.658;2023-03-04T13:08:17;12.13;;;4.37;;
64291;SDS011;50628;51.008;13.658;2023-03-04T13:13:38;11.80;;;4.73;;
64291;SDS011;50628;51.008;13.658;2023-03-04T13:18:41;12.33;;;4.33;;
64291;SDS011;50628;51.008;13.658;2023-03-04T13:23:45;10.40;;;4.57;;
64291;SDS011;50628;51.008;13.658;2023-03-04T13:28:51;9.00;;;4.17;;
64291;SDS011;50628;51.008;13.658;2023-03-04T13:33:57;9.10;;;4.03;;
64291;SDS011;50628;51.008;13.658;2023-03-04T13:39:22;8.33;;;2.63;;
64291;SDS011;50628;51.008;13.658;2023-03-04T13:55:32;6.37;;;2.00;;
64291;SDS011;50628;51.008;13.658;2023-03-04T14:00:36;9.10;;;2.87;;
64291;SDS011;50628;51.008;13.658;2023-03-04T14:11:13;7.97;;;2.77;;
64291;SDS011;50628;51.008;13.658;2023-03-04T14:16:20;8.57;;;3.20;;
64291;SDS011;50628;51.008;13.658;2023-03-04T14:21:24;6.00;;;2.77;;
64291;SDS011;50628;51.008;13.658;2023-03-04T14:26:27;11.13;;;2.67;;
64291;SDS011;50628;51.008;13.658;2023-03-04T14:31:30;4.33;;;2.43;;
64291;SDS011;50628;51.008;13.658;2023-03-04T14:36:36;6.37;;;3.20;;
64291;SDS011;50628;51.008;13.658;2023-03-04T14:41:39;7.20;;;2.70;;
64291;SDS011;50628;51.008;13.658;2023-03-04T14:46:44;14.00;;;4.00;;
64291;SDS011;50628;51.008;13.658;2023-03-04T14:51:49;8.70;;;3.33;;
64291;SDS011;50628;51.008;13.658;2023-03-04T14:56:53;9.00;;;2.77;;
64291;SDS011;50628;51.008;13.658;2023-03-04T15:07:20;5.73;;;3.20;;
64291;SDS011;50628;51.008;13.658;2023-03-04T15:12:27;7.23;;;3.00;;
64291;SDS011;50628;51.008;13.658;2023-03-04T15:17:32;8.07;;;3.10;;
64291;SDS011;50628;51.008;13.658;2023-03-04T15:28:01;10.90;;;2.30;;
64291;SDS011;50628;51.008;13.658;2023-03-04T15:33:04;11.53;;;1.97;;
64291;SDS011;50628;51.008;13.658;2023-03-04T15:38:11;8.33;;;1.97;;
64291;SDS011;50628;51.008;13.658;2023-03-04T15:43:15;34.17;;;5.07;;
64291;SDS011;50628;51.008;13.658;2023-03-04T15:48:19;11.40;;;2.17;;
64291;SDS011;50628;51.008;13.658;2023-03-04T15:53:24;5.50;;;1.63;;
64291;SDS011;50628;51.008;13.658;2023-03-04T15:58:31;8.60;;;1.97;;
64291;SDS011;50628;51.008;13.658;2023-03-04T16:03:33;21.43;;;2.40;;
64291;SDS011;50628;51.008;13.658;2023-03-04T16:08:35;14.13;;;2.17;;
64291;SDS011;50628;51.008;13.658;2023-03-04T16:13:38;10.60;;;2.10;;
64291;SDS011;50628;51.008;13.658;2023-03-04T16:18:40;16.13;;;2.43;;
64291;SDS011;50628;51.008;13.658;2023-03-04T16:23:43;12.27;;;2.40;;
64291;SDS011;50628;51.008;13.658;2023-03-04T16:28:48;13.70;;;2.00;;
64291;SDS011;50628;51.008;13.658;2023-03-04T16:33:50;13.47;;;3.13;;
64291;SDS011;50628;51.008;13.658;2023-03-04T16:38:54;6.67;;;1.60;;
64291;SDS011;50628;51.008;13.658;2023-03-04T16:43:58;10.73;;;1.93;;
64291;SDS011;50628;51.008;13.658;2023-03-04T16:49:00;7.90;;;2.20;;
64291;SDS011;50628;51.008;13.658;2023-03-04T16:54:02;11.33;;;2.50;;
64291;SDS011;50628;51.008;13.658;2023-03-04T16:59:06;8.93;;;2.17;;
64291;SDS011;50628;51.008;13.658;2023-03-04T17:04:08;6.80;;;1.60;;
64291;SDS011;50628;51.008;13.658;2023-03-04T17:09:10;8.33;;;2.00;;
64291;SDS011;50628;51.008;13.658;2023-03-04T17:14:13;6.43;;;2.07;;
64291;SDS011;50628;51.008;13.658;2023-03-04T17:19:15;8.80;;;1.50;;
64291;SDS011;50628;51.008;13.658;2023-03-04T17:24:17;7.73;;;1.40;;
64291;SDS011;50628;51.008;13.658;2023-03-04T17:29:20;8.23;;;1.97;;
64291;SDS011;50628;51.008;13.658;2023-03-04T17:34:22;10.97;;;1.50;;
64291;SDS011;50628;51.008;13.658;2023-03-04T17:39:25;4.83;;;1.53;;
64291;SDS011;50628;51.008;13.658;2023-03-04T17:44:28;7.27;;;1.70;;
64291;SDS011;50628;51.008;13.658;2023-03-04T17:49:30;7.73;;;1.30;;
64291;SDS011;50628;51.008;13.658;2023-03-04T17:54:33;8.40;;;1.70;;
64291;SDS011;50628;51.008;13.658;2023-03-04T17:59:37;4.00;;;1.40;;
64291;SDS011;50628;51.008;13.658;2023-03-04T18:04:39;12.20;;;1.60;;
64291;SDS011;50628;51.008;13.658;2023-03-04T18:09:41;7.50;;;1.57;;
64291;SDS011;50628;51.008;13.658;2023-03-04T18:14:45;10.63;;;1.53;;
64291;SDS011;50628;51.008;13.658;2023-03-04T18:19:46;11.50;;;4.63;;
64291;SDS011;50628;51.008;13.658;2023-03-04T18:24:48;9.03;;;2.37;;
64291;SDS011;50628;51.008;13.658;2023-03-04T18:29:52;7.63;;;2.10;;
64291;SDS011;50628;51.008;13.658;2023-03-04T18:34:55;6.67;;;2.40;;
64291;SDS011;50628;51.008;13.658;2023-03-04T18:39:57;17.13;;;2.33;;
64291;SDS011;50628;51.008;13.658;2023-03-04T18:45:03;8.97;;;2.67;;
64291;SDS011;50628;51.008;13.658;2023-03-04T18:50:06;8.97;;;2.87;;
64291;SDS011;50628;51.008;13.658;2023-03-04T18:55:09;8.03;;;1.77;;
64291;SDS011;50628;51.008;13.658;2023-03-04T19:00:15;9.47;;;2.20;;
64291;SDS011;50628;51.008;13.658;2023-03-04T19:05:20;8.30;;;2.13;;
64291;SDS011;50628;51.008;13.658;2023-03-04T19:10:24;9.27;;;2.30;;
64291;SDS011;50628;51.008;13.658;2023-03-04T19:15:29;8.70;;;1.80;;
64291;SDS011;50628;51.008;13.658;2023-03-04T19:20:31;10.00;;;2.20;;
64291;SDS011;50628;51.008;13.658;2023-03-04T19:25:34;8.53;;;1.73;;
64291;SDS011;50628;51.008;13.658;2023-03-04T19:30:39;13.73;;;2.10;;
64291;SDS011;50628;51.008;13.658;2023-03-04T19:35:44;11.10;;;2.17;;
64291;SDS011;50628;51.008;13.658;2023-03-04T19:40:46;6.87;;;2.17;;
64291;SDS011;50628;51.008;13.658;2023-03-04T19:45:53;8.83;;;2.13;;
64291;SDS011;50628;51.008;13.658;2023-03-04T19:50:56;8.60;;;1.93;;
64291;SDS011;50628;51.008;13.658;2023-03-04T19:55:59;11.57;;;2.50;;
64291;SDS011;50628;51.008;13.658;2023-03-04T20:01:02;9.33;;;2.33;;
64291;SDS011;50628;51.008;13.658;2023-03-04T20:06:04;19.77;;;2.03;;
64291;SDS011;50628;51.008;13.658;2023-03-04T20:11:10;11.47;;;2.73;;
64291;SDS011;50628;51.008;13.658;2023-03-04T20:16:14;15.30;;;2.90;;
64291;SDS011;50628;51.008;13.658;2023-03-04T20:21:16;15.67;;;3.03;;
64291;SDS011;50628;51.008;13.658;2023-03-04T20:26:18;9.67;;;3.00;;
64291;SDS011;50628;51.008;13.658;2023-03-04T20:31:25;10.20;;;2.87;;
64291;SDS011;50628;51.008;13.658;2023-03-04T20:36:30;15.57;;;4.07;;
64291;SDS011;50628;51.008;13.658;2023-03-04T20:41:32;13.90;;;3.30;;
64291;SDS011;50628;51.008;13.658;2023-03-04T20:46:36;11.87;;;2.60;;
64291;SDS011;50628;51.008;13.658;2023-03-04T20:51:42;10.67;;;2.87;;
64291;SDS011;50628;51.008;13.658;2023-03-04T20:56:44;11.63;;;2.57;;
64291;SDS011;50628;51.008;13.658;2023-03-04T21:01:47;11.00;;;2.93;;
64291;SDS011;50628;51.008;13.658;2023-03-04T21:06:49;12.67;;;2.20;;
64291;SDS011;50628;51.008;13.658;2023-03-04T21:11:52;12.13;;;2.77;;
64291;SDS011;50628;51.008;13.658;2023-03-04T21:16:56;16.33;;;3.30;;
64291;SDS011;50628;51.008;13.658;2023-03-04T21:22:00;10.43;;;2.47;;
64291;SDS011;50628;51.008;13.658;2023-03-04T21:27:02;11.93;;;2.97;;
64291;SDS011;50628;51.008;13.658;2023-03-04T21:32:09;13.90;;;2.90;;
64291;SDS011;50628;51.008;13.658;2023-03-04T21:37:13;14.37;;;3.27;;
64291;SDS011;50628;51.008;13.658;2023-03-04T21:42:15;10.57;;;3.30;;
64291;SDS011;50628;51.008;13.658;2023-03-04T21:47:18;8.83;;;1.90;;
64291;SDS011;50628;51.008;13.658;2023-03-04T21:52:21;15.97;;;3.03;;
64291;SDS011;50628;51.008;13.658;2023-03-04T21:57:23;8.20;;;2.13;;
64291;SDS011;50628;51.008;13.658;2023-03-04T22:02:26;11.57;;;2.50;;
64291;SDS011;50628;51.008;13.658;2023-03-04T22:07:28;9.80;;;2.43;;
64291;SDS011;50628;51.008;13.658;2023-03-04T22:12:30;12.53;;;2.60;;
64291;SDS011;50628;51.008;13.658;2023-03-04T22:17:34;8.80;;;2.13;;
64291;SDS011;50628;51.008;13.658;2023-03-04T22:22:36;9.33;;;2.10;;
64291;SDS011;50628;51.008;13.658;2023-03-04T22:27:37;10.80;;;1.97;;
64291;SDS011;50628;51.008;13.658;2023-03-04T22:32:41;10.33;;;2.53;;
64291;SDS011;50628;51.008;13.658;2023-03-04T22:37:44;10.53;;;2.27;;
64291;SDS011;50628;51.008;13.658;2023-03-04T22:42:46;10.53;;;1.97;;
64291;SDS011;50628;51.008;13.658;2023-03-04T22:47:50;12.90;;;2.60;;
64291;SDS011;50628;51.008;13.658;2023-03-04T22:52:53;10.23;;;2.63;;
64291;SDS011;50628;51.008;13.658;2023-03-04T22:57:55;11.30;;;2.13;;
64291;SDS011;50628;51.008;13.658;2023-03-04T23:02:58;10.90;;;2.40;;
64291;SDS011;50628;51.008;13.658;2023-03-04T23:08:00;12.60;;;3.57;;
64291;SDS011;50628;51.008;13.658;2023-03-04T23:13:01;16.07;;;2.80;;
64291;SDS011;50628;51.008;13.658;2023-03-04T23:18:05;13.30;;;3.10;;
64291;SDS011;50628;51.008;13.658;2023-03-04T23:23:07;7.53;;;1.93;;
64291;SDS011;50628;51.008;13.658;2023-03-04T23:28:09;9.43;;;1.80;;
64291;SDS011;50628;51.008;13.658;2023-03-04T23:33:12;16.57;;;2.47;;
64291;SDS011;50628;51.008;13.658;2023-03-04T23:38:14;12.43;;;1.53;;
64291;SDS011;50628;51.008;13.658;2023-03-04T23:43:16;9.53;;;2.20;;
64291;SDS011;50628;51.008;13.658;2023-03-04T23:48:19;10.93;;;1.77;;
64291;SDS011;50628;51.008;13.658;2023-03-04T23:53:21;7.33;;;1.73;;
64291;SDS011;50628;51.008;13.658;2023-03-04T23:58:23;7.93;;;1.57;;
